x

Canaveral 20 Nm East Of Cape Canaveral, Fl (41009) Weather Station

1:20pm - Mon 2nd Mar 2015 All times are EST. -5 hours from GMT.

  • Wind
    9mph, 11mph gusts
  • Sea Temp 71°f
  • Air Temp 66°f
  • Sea Pressure 1025.1mb
  • Canaveral 20 Nm East Of Cape Canaveral, Fl
  • Canaveral 20 Nm East Of Cape Canaveral, Fl

More Historic Weather Station data

Upgrade to MSW Pro to gain access to the past 30 days of data for over 8000 Wavebouys and Weather Stations around the globe.

Join Pro

Comparision Forecast

View Surf forecast
   
Mon 03/02 1:20pm  -   -   -  9 11 mph 1025.1mb 71f 66f
12:50pm 4.5ft 10s 7s 9 11 mph 1025.7mb 71f 66f
12:20pm  -   -   -  9 11 mph 1026mb 70f 65f
11:50am 4.5ft 9s 6s 7 9 mph 1026.3mb 70f 65f
11:20am  -   -   -  7 9 mph 1026.6mb 69f 65f
10:50am 4.5ft 10s 7s 7 9 mph 1026.6mb 69f 65f
10:20am  -   -   -  7 11 mph 1026.5mb 69f 66f
9:50am 4.5ft 10s 6s 7 9 mph 1026.5mb 69f 66f
9:20am  -   -   -  9
mph
1026.5mb 69f 66f
8:50am 5ft 9s 6s 9 11 mph 1026.4mb 69f 65f
8:20am  -   -   -  11 13 mph 1026.3mb 69f 65f
7:50am 5ft 9s 6s 11 13 mph 1026.1mb 69f 64f
7:20am  -   -   -  11 13 mph 1025.9mb 69f 64f
6:50am 5ft 9s 6s 11 13 mph 1025.8mb 69f 64f
6:20am  -   -   -  11 13 mph 1025.8mb 69f 66f
5:50am 4.5ft 10s 6s 9
mph
1025.5mb 69f 67f
5:20am  -   -   -  9 11 mph 1025.4mb 69f 67f
4:50am 4.5ft 9s 6s 9 11 mph 1025.2mb 69f 67f
4:20am  -   -   -  9 11 mph 1025mb 69f 67f
3:50am 5ft 10s 6s 9 11 mph 1025mb 69f 67f
3:20am  -   -   -  9 11 mph 1025.2mb 69f 67f
2:50am 4.5ft 8s 6s 9 11 mph 1025.4mb 69f 68f
2:20am  -   -   -  9
mph
1025.5mb 69f 68f
1:50am 5ft 9s 6s 2 4 mph 1025.8mb 69f 70f
1:20am  -   -   -  2 4 mph 1026mb 69f 71f
12:50am 5ft 9s 6s 4 7 mph 1026.2mb 69f 71f
12:20am  -   -   -  4 7 mph 1026.4mb 69f 71f
Sun 03/01 11:50pm 5.5ft 9s 6s 7 9 mph 1026.6mb 69f 71f
11:20pm  -   -   -  7 9 mph 1026.9mb 69f 71f
10:50pm 6ft 9s 6s 7
mph
1026.9mb 69f 71f
10:20pm  -   -   -  9
mph
1026.9mb 69f 71f
9:50pm 5ft 10s 6s 9 11 mph 1027mb 69f 72f
9:20pm  -   -   -  9 11 mph 1026.8mb 69f 72f
8:50pm 5.5ft 9s 6s 9 11 mph 1026.7mb 69f 72f
8:20pm  -   -   -  9 11 mph 1026.6mb 69f 72f
7:50pm 6ft 9s 6s 7 9 mph 1026.6mb 69f 72f
7:20pm  -   -   -  9 11 mph 1026.3mb 69f 72f
6:50pm 6ft 9s 7s 9 11 mph 1026.2mb 69f 72f
6:20pm  -   -   -  9 11 mph 1026.1mb 69f 72f
5:50pm 7ft 9s 7s 9 11 mph 1025.9mb 69f 72f
5:20pm  -   -   -  9 11 mph 1025.9mb 70f 72f
4:50pm 7.5ft 10s 7s 9 11 mph 1025.9mb 70f 72f
4:20pm  -   -   -  9 11 mph 1025.9mb 70f 72f
3:50pm 7ft 10s 7s 9 11 mph 1026.2mb 70f 72f
3:20pm  -   -   -  11 13 mph 1026.3mb 70f 72f
2:50pm 8ft 10s 7s 11 13 mph 1026.4mb 70f 72f
2:20pm  -   -   -  11 13 mph 1026.5mb 70f 72f
1:50pm 7.5ft 10s 7s 9 11 mph 1026.8mb 70f 71f
1:20pm  -   -   -  9 11 mph 1027.2mb 69f 71f
12:50pm 7ft 10s 6s 11 13 mph 1027.6mb 69f 71f
12:20pm  -   -   -  13 16 mph 1028.2mb 69f 71f
11:50am 8ft 9s 7s 11 13 mph 1028.3mb 69f 71f
11:20am  -   -   -  13 16 mph 1028.4mb 69f 71f
10:50am 9.5ft 9s 7s 16 18 mph 1028.5mb 69f 71f
10:20am  -   -   -  16 20 mph 1028.6mb 69f 71f
9:50am 9ft 10s 7s 16 18 mph 1028.8mb 69f 70f
9:20am  -   -   -  16 18 mph 1028.7mb 69f 71f
8:50am 9.5ft 9s 7s 16 22 mph 1028.5mb 69f 71f
8:20am  -   -   -  20 25 mph 1027.9mb 69f 71f
7:50am 10ft 10s 7s 13 20 mph 1028mb 69f 70f
7:20am  -   -   -  16 20 mph 1027.5mb 69f 70f
6:50am 10ft 9s 7s 18 22 mph 1027.2mb 69f 71f
6:20am  -   -   -  18 20 mph 1027mb 69f 71f
5:50am 9ft 8s 7s 18 20 mph 1026.8mb 69f 71f
5:20am  -   -   -  16 20 mph 1026.8mb 69f 69f
4:50am 10ft 9s 7s 20 22 mph 1026.3mb 69f 70f
4:20am  -   -   -  20 25 mph 1026.1mb 69f 71f
3:50am 9.5ft 9s 7s 20 27 mph 1026.1mb 69f 71f
3:20am  -   -   -  20 27 mph 1026.2mb 69f 71f
2:50am 9ft 8s 6s 22 29 mph 1026.4mb 69f 71f
2:20am  -   -   -  22 27 mph 1026.6mb 69f 71f
1:50am 9.5ft 8s 6s 25 29 mph 1026.9mb 69f 71f
1:20am  -   -   -  22 29 mph 1027mb 69f 71f
12:50am 9.5ft 9s 6s 25 29 mph 1027.2mb 69f 71f
12:20am  -   -   -  22 29 mph 1027.6mb 69f 71f
Sat 02/28 11:50pm 9ft 8s 6s 25 29 mph 1027.9mb 69f 71f
11:20pm  -   -   -  25 29 mph 1027.7mb 69f 71f
10:50pm 9ft 8s 6s 22 29 mph 1028.2mb 69f 71f
10:20pm  -   -   -  25 29 mph 1028mb 69f 71f
9:50pm 9ft 8s 6s 22 29 mph 1028mb 69f 71f
9:20pm  -   -   -  22 27 mph 1028.1mb 69f 71f
8:50pm 9ft 8s 6s 22 27 mph 1027.9mb 69f 71f
8:20pm  -   -   -  22 27 mph 1027.1mb 69f 71f
7:50pm 9ft 8s 6s 25 29 mph 1026.7mb 69f 71f
7:20pm  -   -   -  25 29 mph 1026.9mb 69f 71f
6:50pm 8ft 8s 6s 20 27 mph 1027.1mb 69f 71f
5:50pm 8.5ft 8s 6s 25 29 mph 1026.4mb 69f 70f
5:20pm  -   -   -  25 31 mph 1026mb 69f 71f
4:50pm 9ft 8s 6s 27 31 mph 1025.5mb 69f 70f
4:20pm  -   -   -  25 29 mph 1025.7mb 69f 70f
3:50pm 9ft 8s 6s 25 29 mph 1025.6mb 69f 70f
3:20pm  -   -   -  27 34 mph 1025.3mb 69f 70f
2:50pm 8.5ft 8s 6s 25 29 mph 1025.9mb 69f 70f
2:20pm  -   -   -  27 31 mph 1026mb 69f 70f
1:50pm 9ft 8s 6s 25 31 mph 1026.3mb 69f 70f
1:20pm  -   -   -  25 31 mph 1026.5mb 69f 70f
12:50pm 9ft 8s 6s 27 31 mph 1026.8mb 69f 70f
12:20pm  -   -   -  25 31 mph 1027mb 69f 69f
11:50am 8ft 8s 6s 27 31 mph 1027mb 69f 69f
11:20am  -   -   -  27 31 mph 1027.5mb 69f 69f
10:50am 8ft 8s 6s 27 31 mph 1027.5mb 69f 69f
10:20am  -   -   -  27 31 mph 1027.3mb 69f 69f
9:50am 8ft 8s 6s 27 34 mph 1026.8mb 69f 69f
9:20am  -   -   -  27 34 mph 1026.6mb 69f 69f
8:50am 8ft 7s 6s 27 31 mph 1026.5mb 69f 69f
8:20am  -   -   -  25 31 mph 1026.1mb 69f 69f
7:50am 8.5ft 7s 6s 25 29 mph 1025.7mb 69f 68f
7:20am  -   -   -  25 29 mph 1025.2mb 69f 68f
6:50am 7ft 7s 6s 22 29 mph 1025mb 69f 68f
6:20am  -   -   -  25 29 mph 1024.5mb 69f 68f
5:50am 7.5ft 7s 6s 22 27 mph 1024.4mb 69f 68f
5:20am  -   -   -  22 27 mph 1024.2mb 69f 67f
4:50am 7ft 7s 6s 20 27 mph 1024.1mb 69f 67f
4:20am  -   -   -  22 25 mph 1023.7mb 69f 67f
3:50am 6.5ft 7s 6s 20 25 mph 1023.5mb 69f 68f
3:20am  -   -   -  20 27 mph 1023.2mb 69f 68f
2:50am 7ft 6s 6s 20 25 mph 1023.2mb 69f 69f
2:20am  -   -   -  22 25 mph 1023mb 69f 68f
1:50am 7ft 7s 5s 25 29 mph 1023.2mb 69f 68f
1:20am  -   -   -  22 27 mph 1023.5mb 69f 68f
12:50am 6ft 6s 5s 20 25 mph 1023.6mb 69f 69f
12:20am  -   -   -  20 25 mph 1023.8mb 69f 68f
Fri 02/27 11:50pm 6ft 6s 5s 20 25 mph 1024.1mb 69f 67f
11:20pm  -   -   -  20 25 mph 1024mb 69f 67f
10:50pm 6ft 6s 5s 18 22 mph 1024.3mb 69f 66f
10:20pm  -   -   -  20 22 mph 1024.2mb 69f 66f
9:50pm 6ft 6s 5s 18 22 mph 1024.3mb 69f 66f
9:20pm  -   -   -  18 22 mph 1024mb 69f 67f
8:50pm 5.5ft 6s 5s 18 22 mph 1023.5mb 68f 68f
8:20pm  -   -   -  20 22 mph 1023.2mb 68f 68f
7:50pm 6ft 6s 5s 16 20 mph 1022.9mb 68f 68f
7:20pm  -   -   -  13 20 mph 1022.7mb 68f 67f
6:50pm 5.5ft 6s 5s 16 20 mph 1022.3mb 68f 66f
6:20pm  -   -   -  16 20 mph 1022.2mb 68f 65f
5:50pm 5.5ft 6s 5s 13 16 mph 1022.3mb 68f 65f
5:20pm  -   -   -  16 18 mph 1021.8mb 68f 65f
4:50pm 6ft 6s 5s 16 18 mph 1021.4mb 68f 65f
4:20pm  -   -   -  16 20 mph 1021.3mb 68f 64f
3:50pm 6ft 6s 5s 22 25 mph 1021.1mb 68f 64f
3:20pm  -   -   -  20 25 mph 1021.2mb 68f 64f
2:50pm 6ft 6s 5s 22 27 mph 1021.3mb 68f 64f
2:20pm  -   -   -  25 29 mph 1021mb 68f 63f
1:50pm 5.5ft 6s 5s 25 29 mph 1021.1mb 68f 63f
1:20pm  -   -   -  25 27 mph 1021.6mb 68f 63f
12:50pm 5ft 6s 5s 25 27 mph 1021.9mb 68f 63f
12:20pm  -   -   -  22 27 mph 1022.2mb 68f 63f
11:50am 5ft 5s 5s 22 25 mph 1022.3mb 68f 63f
11:20am  -   -   -  22 25 mph 1022.3mb 68f 63f
10:50am 4.5ft 6s 5s 20 25 mph 1022.1mb 68f 63f
10:20am  -   -   -  22 25 mph 1021.9mb 68f 63f
9:50am 4.5ft 6s 5s 20 25 mph 1021.6mb 68f 63f
9:20am  -   -   -  20 25 mph 1021.2mb 68f 64f
8:50am 4.5ft 8s 5s 20 25 mph 1020.8mb 68f 64f
8:20am  -   -   -  20 25 mph 1020.2mb 68f 64f
7:50am 4.5ft 8s 5s 20 25 mph 1019.8mb 68f 64f
7:20am  -   -   -  20 25 mph 1019.3mb 68f 64f
6:50am 4.5ft 7s 5s 20 25 mph 1019mb 68f 64f
6:20am  -   -   -  18 22 mph 1018.7mb 68f 64f
5:50am 4.5ft 8s 5s 18 22 mph 1018.3mb 68f 63f
5:20am  -   -   -  20 25 mph 1017.6mb 68f 63f
4:50am 4.5ft 8s 5s 18 22 mph 1017.6mb 68f 63f
4:20am  -   -   -  18 22 mph 1017.4mb 68f 63f
3:50am 4.5ft 6s 5s 18 22 mph 1017.1mb 68f 63f
3:20am  -   -   -  18 22 mph 1016.8mb 68f 63f
2:50am 4.5ft 6s 5s 18 20 mph 1016.8mb 68f 63f
2:20am  -   -   -  18 20 mph 1016.9mb 68f 63f
1:50am 4.5ft 7s 5s 18 20 mph 1016.9mb 68f 63f
1:20am  -   -   -  16 20 mph 1017.1mb 68f 63f
12:50am 4.5ft 6s 5s 18 20 mph 1017.2mb 68f 63f
12:20am  -   -   -  16 18 mph 1017.5mb 68f 63f
Thu 02/26 11:50pm 4.5ft 7s 5s 13 16 mph 1017.3mb 68f 64f
11:20pm  -   -   -  13 18 mph 1017mb 68f 64f
10:50pm 4.5ft 7s 5s 13 18 mph 1017.3mb 68f 64f
10:20pm  -   -   -  16 18 mph 1017mb 68f 64f
9:50pm 4.5ft 6s 5s 13 18 mph 1016.5mb 68f 64f
9:20pm  -   -   -  13 18 mph 1016.2mb 68f 64f
8:50pm 3.5ft 10s 5s 16 18 mph 1016mb 68f 64f
8:20pm  -   -   -  16 20 mph 1015.5mb 68f 64f
7:50pm 3ft 11s 4s 16 18 mph 1014.9mb 69f 64f
7:20pm  -   -   -  13 18 mph 1014.5mb 69f 64f